Time;durP1;ratioP1;P1;durP2;ratioP2;P2;SDS_P1;SDS_P2;PMS_P1;PMS_P2;Temp;Humidity;BMP_temperature;BMP_pressure;BME280_temperature;BME280_humidity;BME280_pressure;Samples;Min_cycle;Max_cycle;Signal;HPM_P1;HPM_P2
2022/07/23 00:01:53;;;;;;;6.20;5.70;;;20.50;99.90;;;;;;483439;246;29240;-69
2022/07/23 00:03:54;;;;;;;6.17;5.67;;;20.50;99.90;;;;;;483413;246;29381;-71
2022/07/23 00:05:56;;;;;;;7.43;5.70;;;20.50;99.90;;;;;;483429;246;29459;-69
2022/07/23 00:07:57;;;;;;;6.80;6.20;;;20.40;99.90;;;;;;483338;246;28932;-70
2022/07/23 00:09:58;;;;;;;7.37;5.43;;;20.30;99.90;;;;;;483438;245;28759;-70
2022/07/23 00:11:59;;;;;;;6.57;5.57;;;20.20;99.90;;;;;;483414;245;28794;-70
2022/07/23 00:14:01;;;;;;;6.03;5.50;;;20.10;99.90;;;;;;483431;245;28829;-73
2022/07/23 00:16:02;;;;;;;5.83;5.33;;;20.10;99.90;;;;;;483391;246;28880;-70
2022/07/23 00:18:03;;;;;;;6.67;6.07;;;20.20;99.90;;;;;;483384;245;28904;-70
2022/07/23 00:20:04;;;;;;;6.57;6.07;;;20.20;99.90;;;;;;483415;245;28901;-70
2022/07/23 00:22:06;;;;;;;6.00;5.50;;;20.20;99.90;;;;;;483404;245;28823;-69
2022/07/23 00:24:07;;;;;;;6.23;5.63;;;20.20;99.90;;;;;;483425;246;28829;-72
2022/07/23 00:26:08;;;;;;;6.03;5.53;;;20.20;99.90;;;;;;483375;245;29231;-69
2022/07/23 00:28:09;;;;;;;6.87;5.87;;;20.10;99.90;;;;;;483395;245;28927;-69
2022/07/23 00:30:11;;;;;;;6.37;5.83;;;20.00;99.90;;;;;;483403;245;28841;-69
2022/07/23 00:32:12;;;;;;;6.30;5.80;;;19.90;99.90;;;;;;483413;245;28815;-70
2022/07/23 00:34:13;;;;;;;10.90;6.63;;;19.90;99.90;;;;;;483419;245;28833;-72
2022/07/23 00:36:14;;;;;;;7.93;6.50;;;19.80;99.90;;;;;;483274;246;28794;-69
2022/07/23 00:38:16;;;;;;;7.07;6.37;;;19.70;99.90;;;;;;483415;245;28835;-70
2022/07/23 00:40:17;;;;;;;5.90;5.40;;;19.90;99.90;;;;;;483426;246;28798;-69
2022/07/23 00:42:18;;;;;;;6.60;6.00;;;20.00;99.90;;;;;;483398;245;28817;-69
2022/07/23 00:44:19;;;;;;;6.83;6.23;;;20.00;99.90;;;;;;483414;246;29281;-71
2022/07/23 00:46:21;;;;;;;7.23;6.63;;;20.00;99.90;;;;;;483367;245;29397;-69
2022/07/23 00:48:22;;;;;;;6.70;6.10;;;20.00;99.90;;;;;;483410;245;29316;-70
2022/07/23 00:50:23;;;;;;;7.23;6.63;;;19.90;99.90;;;;;;483420;245;28889;-69
2022/07/23 00:52:24;;;;;;;6.53;6.00;;;19.90;99.90;;;;;;483395;245;28784;-69
2022/07/23 00:54:26;;;;;;;7.17;6.47;;;19.90;99.90;;;;;;483413;245;28825;-71
2022/07/23 00:56:27;;;;;;;7.97;6.23;;;20.00;99.90;;;;;;483340;245;28919;-68
2022/07/23 00:58:28;;;;;;;6.63;6.03;;;19.90;99.90;;;;;;483410;245;28813;-69
2022/07/23 01:00:29;;;;;;;5.80;5.30;;;19.90;99.90;;;;;;483427;245;28813;-69
2022/07/23 01:02:31;;;;;;;6.00;5.50;;;19.90;99.90;;;;;;483416;245;28917;-69
2022/07/23 01:04:32;;;;;;;6.70;6.07;;;19.90;99.90;;;;;;483412;246;28824;-70
2022/07/23 01:06:33;;;;;;;6.27;5.67;;;19.90;99.90;;;;;;483352;245;28784;-69
2022/07/23 01:08:34;;;;;;;6.30;5.70;;;19.80;99.90;;;;;;483427;245;29285;-69
2022/07/23 01:10:36;;;;;;;6.53;5.93;;;19.70;99.90;;;;;;483419;245;29242;-69
2022/07/23 01:12:37;;;;;;;6.37;5.87;;;19.70;99.90;;;;;;483423;245;29270;-70
2022/07/23 01:14:38;;;;;;;6.20;5.60;;;19.70;99.90;;;;;;483439;245;29348;-72
2022/07/23 01:16:39;;;;;;;8.80;6.70;;;19.60;99.90;;;;;;483362;245;28892;-69
2022/07/23 01:18:41;;;;;;;6.63;6.13;;;19.30;99.90;;;;;;483427;245;28837;-70
2022/07/23 01:20:42;;;;;;;6.83;6.23;;;19.20;99.90;;;;;;483399;245;28861;-69
2022/07/23 01:22:43;;;;;;;6.90;6.30;;;19.20;99.90;;;;;;483406;245;28889;-69
2022/07/23 01:24:45;;;;;;;7.93;7.13;;;19.10;99.90;;;;;;483413;245;28900;-72
2022/07/23 01:26:46;;;;;;;9.20;7.40;;;19.10;99.90;;;;;;483333;246;28810;-69
2022/07/23 01:28:47;;;;;;;7.77;7.07;;;19.30;99.90;;;;;;483417;245;28888;-70
2022/07/23 01:30:48;;;;;;;8.07;7.37;;;19.50;99.90;;;;;;483419;245;28866;-69
2022/07/23 01:32:50;;;;;;;7.77;7.07;;;19.60;99.90;;;;;;483433;245;28793;-69
2022/07/23 01:34:51;;;;;;;8.07;7.27;;;19.70;99.90;;;;;;483292;245;29402;-71
2022/07/23 01:36:52;;;;;;;8.03;7.33;;;19.70;99.90;;;;;;483370;245;29262;-69
2022/07/23 01:38:53;;;;;;;7.00;6.40;;;19.70;99.90;;;;;;483391;245;29369;-70
2022/07/23 01:40:55;;;;;;;7.03;6.33;;;19.90;99.90;;;;;;483405;245;28814;-69
2022/07/23 01:42:56;;;;;;;7.03;6.43;;;20.00;99.90;;;;;;483419;245;28795;-69
2022/07/23 01:44:57;;;;;;;6.07;5.57;;;19.90;99.90;;;;;;483406;245;28914;-70
2022/07/23 01:46:58;;;;;;;6.53;5.93;;;19.90;99.90;;;;;;483364;245;28777;-68
2022/07/23 01:49:00;;;;;;;9.00;5.90;;;19.80;99.90;;;;;;483386;245;28885;-71
2022/07/23 01:51:01;;;;;;;7.10;6.50;;;19.80;99.90;;;;;;483403;245;28829;-69
2022/07/23 01:53:02;;;;;;;6.23;5.63;;;19.80;99.90;;;;;;483416;245;28912;-69
2022/07/23 01:55:03;;;;;;;5.93;5.37;;;19.80;99.90;;;;;;483417;245;28827;-70
2022/07/23 01:57:05;;;;;;;6.20;5.70;;;19.80;99.90;;;;;;483345;245;28848;-69
2022/07/23 01:59:06;;;;;;;6.40;5.80;;;19.80;99.90;;;;;;483394;245;29274;-70
2022/07/23 02:01:07;;;;;;;6.00;5.50;;;19.70;99.90;;;;;;483407;245;29231;-69
2022/07/23 02:03:08;;;;;;;6.53;5.93;;;19.70;99.90;;;;;;483381;245;29268;-70
2022/07/23 02:05:10;;;;;;;6.93;6.37;;;19.70;99.90;;;;;;483405;245;28905;-71
2022/07/23 02:07:11;;;;;;;11.10;6.50;;;19.60;99.90;;;;;;483319;245;28822;-69
2022/07/23 02:09:12;;;;;;;7.87;7.20;;;19.50;99.90;;;;;;483381;245;28829;-69
2022/07/23 02:11:13;;;;;;;11.00;7.80;;;19.50;99.90;;;;;;483426;245;28815;-69
2022/07/23 02:13:15;;;;;;;7.37;6.67;;;19.50;99.90;;;;;;483449;245;28789;-70
2022/07/23 02:15:16;;;;;;;8.13;7.40;;;19.60;99.90;;;;;;483426;246;28821;-70
2022/07/23 02:17:17;;;;;;;7.40;6.70;;;19.60;99.90;;;;;;483380;245;28983;-69
2022/07/23 02:19:18;;;;;;;7.50;6.80;;;19.50;99.90;;;;;;483383;246;28734;-69
2022/07/23 02:21:20;;;;;;;7.50;6.77;;;19.50;99.90;;;;;;483446;245;30222;-69
2022/07/23 02:23:21;;;;;;;7.53;6.83;;;19.40;99.90;;;;;;483427;245;29310;-69
2022/07/23 02:25:22;;;;;;;7.87;7.10;;;19.40;99.90;;;;;;483429;246;29289;-70
2022/07/23 02:27:23;;;;;;;7.57;6.80;;;19.20;99.90;;;;;;483357;245;29283;-69
2022/07/23 02:29:25;;;;;;;7.17;6.47;;;19.20;99.90;;;;;;483412;245;28808;-69
2022/07/23 02:31:26;;;;;;;6.83;6.23;;;19.20;99.90;;;;;;483446;245;28854;-69
2022/07/23 02:33:27;;;;;;;7.00;6.33;;;19.20;99.90;;;;;;483435;245;28929;-71
2022/07/23 02:35:28;;;;;;;7.10;6.50;;;19.10;99.90;;;;;;483360;245;28828;-70
2022/07/23 02:37:30;;;;;;;7.40;6.70;;;19.00;99.90;;;;;;483378;245;28794;-69
2022/07/23 02:39:31;;;;;;;7.63;6.50;;;18.70;99.90;;;;;;483430;245;28875;-69
2022/07/23 02:41:32;;;;;;;7.10;6.40;;;18.50;99.90;;;;;;483453;245;28929;-68
2022/07/23 02:43:33;;;;;;;7.43;6.73;;;18.40;99.90;;;;;;483446;245;28698;-68
2022/07/23 02:45:35;;;;;;;8.10;7.30;;;18.50;99.90;;;;;;483451;245;28842;-70
2022/07/23 02:47:36;;;;;;;7.20;6.60;;;18.50;99.90;;;;;;483367;245;29251;-68
2022/07/23 02:49:37;;;;;;;7.23;6.63;;;18.60;99.90;;;;;;483419;245;29342;-69
2022/07/23 02:51:38;;;;;;;7.03;6.43;;;18.60;99.90;;;;;;483431;245;29306;-68
2022/07/23 02:53:40;;;;;;;7.43;6.73;;;18.70;99.90;;;;;;483436;245;28892;-68
2022/07/23 02:55:41;;;;;;;6.07;5.60;;;18.80;99.90;;;;;;483430;245;28942;-71
2022/07/23 02:57:42;;;;;;;6.10;5.57;;;18.90;99.90;;;;;;483378;245;28821;-68
2022/07/23 02:59:43;;;;;;;7.20;6.60;;;19.00;99.90;;;;;;483403;245;28834;-69
2022/07/23 03:01:45;;;;;;;7.50;6.80;;;19.00;99.90;;;;;;483417;246;28790;-69
2022/07/23 03:03:46;;;;;;;8.13;7.30;;;19.00;99.90;;;;;;483417;245;28811;-70
2022/07/23 03:05:47;;;;;;;9.07;8.13;;;18.80;99.90;;;;;;483428;245;28844;-71
2022/07/23 03:07:48;;;;;;;12.03;9.90;;;18.70;99.90;;;;;;483377;245;28783;-69
2022/07/23 03:09:50;;;;;;;12.90;10.37;;;18.60;99.90;;;;;;483432;245;29243;-69
2022/07/23 03:11:51;;;;;;;10.97;9.87;;;18.50;99.90;;;;;;483398;245;30195;-69
2022/07/23 03:13:52;;;;;;;10.83;9.73;;;18.50;99.90;;;;;;483432;245;29339;-69
2022/07/23 03:15:53;;;;;;;10.90;9.80;;;18.60;99.90;;;;;;483426;246;28910;-72
2022/07/23 03:17:55;;;;;;;11.10;9.40;;;18.70;99.90;;;;;;483358;245;28783;-69
2022/07/23 03:19:56;;;;;;;10.00;8.10;;;18.70;99.90;;;;;;483408;245;28990;-69
2022/07/23 03:21:57;;;;;;;9.43;8.47;;;18.80;99.90;;;;;;483421;246;28784;-69
2022/07/23 03:23:58;;;;;;;8.27;7.57;;;18.90;99.90;;;;;;483430;245;28821;-70
2022/07/23 03:26:00;;;;;;;9.00;8.10;;;18.90;99.90;;;;;;483431;245;28859;-71
2022/07/23 03:28:01;;;;;;;12.37;8.00;;;18.90;99.90;;;;;;483390;245;28823;-69
2022/07/23 03:30:02;;;;;;;7.90;7.10;;;18.80;99.90;;;;;;483419;245;29381;-70
2022/07/23 03:32:03;;;;;;;8.20;7.40;;;18.60;99.90;;;;;;483412;245;29252;-69
2022/07/23 03:34:05;;;;;;;7.37;6.70;;;18.50;99.90;;;;;;483425;245;29267;-69
2022/07/23 03:36:06;;;;;;;8.20;7.43;;;18.60;99.90;;;;;;483229;246;28819;-77
2022/07/23 03:38:07;;;;;;;8.60;7.80;;;18.70;99.90;;;;;;483425;245;28782;-69
2022/07/23 03:40:08;;;;;;;6.67;6.07;;;18.60;99.90;;;;;;483416;245;28907;-70
2022/07/23 03:42:10;;;;;;;8.33;7.53;;;18.60;99.90;;;;;;483412;246;28786;-69
2022/07/23 03:44:11;;;;;;;8.53;7.73;;;18.50;99.90;;;;;;483413;245;28916;-70
2022/07/23 03:46:12;;;;;;;7.97;7.23;;;18.20;99.90;;;;;;483349;245;28919;-71
2022/07/23 03:48:13;;;;;;;7.23;6.50;;;18.10;99.90;;;;;;483416;245;28796;-69
2022/07/23 03:50:15;;;;;;;8.40;7.70;;;18.00;99.90;;;;;;483416;246;28838;-70
2022/07/23 03:52:16;;;;;;;8.47;7.63;;;18.00;99.90;;;;;;483342;245;28791;-69
2022/07/23 03:54:17;;;;;;;10.63;8.10;;;18.00;99.90;;;;;;483441;245;29342;-69
2022/07/23 03:56:18;;;;;;;9.40;8.50;;;18.10;99.90;;;;;;483360;245;29322;-70
2022/07/23 03:58:20;;;;;;;9.47;8.03;;;18.20;99.90;;;;;;483434;245;29246;-70
2022/07/23 04:00:21;;;;;;;8.60;7.70;;;18.20;99.90;;;;;;483377;245;28839;-69
2022/07/23 04:02:22;;;;;;;8.30;7.27;;;18.20;99.90;;;;;;483399;245;28812;-69
2022/07/23 04:04:23;;;;;;;8.40;7.40;;;18.30;99.90;;;;;;483406;246;28792;-69
2022/07/23 04:06:25;;;;;;;9.10;8.20;;;18.30;99.90;;;;;;483367;245;28824;-70
2022/07/23 04:08:26;;;;;;;8.33;7.50;;;18.40;99.90;;;;;;483431;246;28783;-69
2022/07/23 04:10:27;;;;;;;8.23;7.43;;;18.40;99.90;;;;;;483395;245;28844;-70
2022/07/23 04:12:28;;;;;;;8.53;7.73;;;18.40;99.90;;;;;;483418;245;28864;-69
2022/07/23 04:14:30;;;;;;;7.57;6.70;;;18.40;99.90;;;;;;483423;246;28767;-69
2022/07/23 04:16:31;;;;;;;7.97;7.17;;;18.50;99.90;;;;;;483363;245;28833;-70
2022/07/23 04:18:32;;;;;;;8.10;7.40;;;18.30;99.90;;;;;;483400;245;29262;-68
2022/07/23 04:20:33;;;;;;;7.80;7.10;;;18.30;99.90;;;;;;483409;245;29405;-69
2022/07/23 04:22:35;;;;;;;7.90;7.10;;;18.20;99.90;;;;;;483404;245;30032;-68
2022/07/23 04:24:36;;;;;;;6.97;6.30;;;18.30;99.90;;;;;;483422;245;29320;-68
2022/07/23 04:26:37;;;;;;;7.17;6.57;;;18.20;99.90;;;;;;483352;245;28903;-72
2022/07/23 04:28:38;;;;;;;7.67;6.97;;;18.30;99.90;;;;;;483411;245;28787;-68
2022/07/23 04:30:40;;;;;;;7.20;6.53;;;18.40;99.90;;;;;;483393;246;28953;-69
2022/07/23 04:32:41;;;;;;;7.63;6.83;;;18.40;99.90;;;;;;483381;245;28859;-69
2022/07/23 04:34:42;;;;;;;10.87;9.50;;;18.30;99.90;;;;;;483347;245;28823;-69
2022/07/23 04:36:43;;;;;;;8.97;8.00;;;18.10;99.90;;;;;;483352;246;28830;-71
2022/07/23 04:38:45;;;;;;;8.57;7.70;;;18.20;99.90;;;;;;483406;245;28787;-69
2022/07/23 04:40:46;;;;;;;9.33;8.17;;;18.30;99.90;;;;;;483400;245;28847;-70
2022/07/23 04:42:47;;;;;;;8.97;8.17;;;18.30;99.90;;;;;;483394;245;29464;-69
2022/07/23 04:44:48;;;;;;;8.67;7.77;;;18.30;99.90;;;;;;483400;245;29227;-70
2022/07/23 04:46:50;;;;;;;8.97;8.13;;;18.30;99.90;;;;;;483346;245;29375;-71
2022/07/23 04:48:51;;;;;;;8.50;7.70;;;18.30;99.90;;;;;;483393;245;28835;-70
2022/07/23 04:50:52;;;;;;;7.17;6.57;;;18.30;99.90;;;;;;483380;245;28838;-70
2022/07/23 04:52:53;;;;;;;7.70;6.93;;;18.40;99.90;;;;;;483398;245;28828;-72
2022/07/23 04:54:55;;;;;;;7.63;6.93;;;18.40;99.90;;;;;;483382;245;28791;-69
2022/07/23 04:56:56;;;;;;;7.87;6.97;;;18.50;99.90;;;;;;483341;245;28829;-71
2022/07/23 04:58:57;;;;;;;10.07;8.13;;;18.50;99.90;;;;;;483389;245;28795;-69
2022/07/23 05:00:59;;;;;;;8.83;7.93;;;18.20;99.90;;;;;;483363;245;28981;-70
2022/07/23 05:03:00;;;;;;;9.03;8.00;;;18.30;99.90;;;;;;483412;245;29251;-72
2022/07/23 05:05:01;;;;;;;8.93;8.03;;;18.40;99.90;;;;;;483407;245;28838;-69
2022/07/23 05:07:02;;;;;;;7.40;6.70;;;18.50;99.90;;;;;;483327;245;29280;-71
2022/07/23 05:09:04;;;;;;;7.80;7.00;;;18.50;99.90;;;;;;483409;245;29332;-69
2022/07/23 05:11:05;;;;;;;7.90;7.20;;;18.50;99.90;;;;;;483401;246;29397;-69
2022/07/23 05:13:06;;;;;;;7.90;7.20;;;18.50;99.90;;;;;;483413;245;28817;-73
2022/07/23 05:15:07;;;;;;;8.50;7.70;;;18.50;99.90;;;;;;483417;245;28858;-69
2022/07/23 05:17:09;;;;;;;7.37;6.67;;;18.50;99.90;;;;;;483369;245;28820;-70
2022/07/23 05:19:10;;;;;;;7.00;6.40;;;18.60;99.90;;;;;;483418;245;28774;-70
2022/07/23 05:21:11;;;;;;;8.00;7.20;;;18.70;99.90;;;;;;483398;245;28854;-70
2022/07/23 05:23:12;;;;;;;7.30;6.70;;;18.90;99.90;;;;;;483382;245;28824;-73
2022/07/23 05:25:14;;;;;;;7.70;6.97;;;18.90;99.90;;;;;;483439;245;28794;-70
2022/07/23 05:27:15;;;;;;;8.60;7.67;;;18.90;99.90;;;;;;483392;245;28824;-70
2022/07/23 05:29:16;;;;;;;7.33;6.67;;;18.90;99.90;;;;;;483446;246;28776;-69
2022/07/23 05:31:17;;;;;;;7.70;7.00;;;19.00;99.90;;;;;;483431;245;29312;-69
2022/07/23 05:33:19;;;;;;;8.00;7.20;;;18.90;99.90;;;;;;483464;245;29339;-73
2022/07/23 05:35:20;;;;;;;7.90;7.20;;;18.80;99.90;;;;;;483345;245;29302;-70
2022/07/23 05:37:21;;;;;;;8.27;7.47;;;18.80;99.90;;;;;;483368;245;29459;-70
2022/07/23 05:39:22;;;;;;;7.33;6.73;;;18.70;99.90;;;;;;483387;245;28880;-69
2022/07/23 05:41:24;;;;;;;7.80;7.00;;;18.80;99.90;;;;;;483375;245;28826;-70
2022/07/23 05:43:25;;;;;;;8.50;7.70;;;18.90;99.90;;;;;;483433;245;28904;-72
2022/07/23 05:45:26;;;;;;;8.77;7.97;;;19.00;99.90;;;;;;483435;245;28770;-70
2022/07/23 05:47:27;;;;;;;7.67;6.80;;;19.10;99.90;;;;;;483372;246;28832;-71
2022/07/23 05:49:29;;;;;;;7.63;6.93;;;19.20;99.90;;;;;;483430;245;28764;-70
2022/07/23 05:51:30;;;;;;;8.60;7.47;;;19.20;99.90;;;;;;483429;245;28718;-70
2022/07/23 05:53:31;;;;;;;7.87;7.17;;;19.20;99.90;;;;;;483462;245;28846;-74
2022/07/23 05:55:32;;;;;;;8.40;7.50;;;19.10;99.90;;;;;;483425;245;28687;-70
2022/07/23 05:57:34;;;;;;;7.90;7.10;;;19.10;99.90;;;;;;483331;246;29323;-69
2022/07/23 05:59:35;;;;;;;7.63;6.93;;;19.00;99.90;;;;;;483412;245;29235;-70
2022/07/23 06:01:36;;;;;;;8.40;7.50;;;19.00;99.90;;;;;;483413;245;29253;-70
2022/07/23 06:03:37;;;;;;;7.17;6.47;;;19.00;99.90;;;;;;483437;245;28719;-73
2022/07/23 06:05:39;;;;;;;7.90;7.13;;;19.00;99.90;;;;;;483442;245;28769;-70
2022/07/23 06:07:40;;;;;;;8.07;7.37;;;19.10;99.90;;;;;;483396;245;28942;-71
2022/07/23 06:09:41;;;;;;;8.50;6.80;;;19.10;99.90;;;;;;483455;245;28820;-70
2022/07/23 06:11:42;;;;;;;8.53;7.63;;;19.10;99.90;;;;;;483409;245;28710;-70
2022/07/23 06:13:44;;;;;;;8.57;7.77;;;19.00;99.90;;;;;;483422;245;28739;-73
2022/07/23 06:15:45;;;;;;;9.07;8.23;;;18.90;99.90;;;;;;483435;245;28890;-70
2022/07/23 06:17:46;;;;;;;9.10;8.23;;;18.70;99.90;;;;;;483346;245;28837;-70
2022/07/23 06:19:47;;;;;;;8.77;7.87;;;18.60;99.90;;;;;;483389;245;28867;-69
2022/07/23 06:21:49;;;;;;;8.40;7.53;;;18.60;99.90;;;;;;483387;245;29188;-70
2022/07/23 06:23:50;;;;;;;9.20;8.30;;;18.80;99.90;;;;;;483410;245;29230;-70
2022/07/23 06:25:51;;;;;;;8.93;8.03;;;18.90;99.90;;;;;;483416;245;29369;-69
2022/07/23 06:27:52;;;;;;;8.63;7.63;;;19.00;99.90;;;;;;483357;245;28911;-69
2022/07/23 06:29:54;;;;;;;8.47;7.67;;;19.00;99.90;;;;;;483410;245;28711;-70
2022/07/23 06:31:55;;;;;;;8.30;7.50;;;19.00;99.90;;;;;;483422;245;28829;-70
2022/07/23 06:33:56;;;;;;;8.63;7.70;;;19.10;99.90;;;;;;483433;245;28843;-71
2022/07/23 06:35:57;;;;;;;8.40;7.60;;;19.20;99.90;;;;;;483321;245;28796;-70
2022/07/23 06:37:59;;;;;;;8.60;7.83;;;19.20;99.90;;;;;;483374;245;28906;-70
2022/07/23 06:40:00;;;;;;;7.30;6.60;;;19.40;99.90;;;;;;483422;245;28899;-72
2022/07/23 06:42:01;;;;;;;7.67;7.00;;;19.30;99.90;;;;;;483430;245;28849;-70
2022/07/23 06:44:02;;;;;;;8.23;7.43;;;19.40;99.90;;;;;;483417;245;28929;-70
2022/07/23 06:46:04;;;;;;;8.43;7.60;;;19.40;99.90;;;;;;483358;245;29224;-72
2022/07/23 06:48:05;;;;;;;8.40;7.40;;;19.40;99.90;;;;;;483408;245;29331;-70
2022/07/23 06:50:06;;;;;;;8.50;7.70;;;19.40;99.90;;;;;;483423;245;29423;-72
2022/07/23 06:52:07;;;;;;;7.60;6.90;;;19.30;99.90;;;;;;483443;245;29304;-70
2022/07/23 06:54:09;;;;;;;8.07;7.27;;;19.40;99.90;;;;;;483419;245;28917;-71
2022/07/23 06:56:10;;;;;;;8.60;7.80;;;19.50;99.90;;;;;;483358;245;28827;-70
2022/07/23 06:58:11;;;;;;;8.33;7.43;;;19.50;99.90;;;;;;483418;246;28849;-71
2022/07/23 07:00:12;;;;;;;7.37;6.73;;;19.50;99.90;;;;;;483449;245;28808;-73
2022/07/23 07:02:14;;;;;;;8.10;7.30;;;19.60;99.90;;;;;;483458;245;28874;-70
2022/07/23 07:04:15;;;;;;;8.10;7.30;;;19.70;99.90;;;;;;483453;245;28826;-72
2022/07/23 07:06:16;;;;;;;8.17;7.30;;;19.60;99.90;;;;;;483391;245;28855;-70
2022/07/23 07:08:17;;;;;;;8.50;7.30;;;19.60;99.90;;;;;;483393;245;28883;-70
2022/07/23 07:10:19;;;;;;;7.90;7.20;;;19.60;99.90;;;;;;483425;245;29366;-73
2022/07/23 07:12:20;;;;;;;8.97;8.07;;;19.50;99.90;;;;;;483427;245;29336;-70
2022/07/23 07:14:21;;;;;;;9.53;8.13;;;19.50;99.90;;;;;;483425;243;29436;-71
2022/07/23 07:16:22;;;;;;;8.77;7.97;;;19.50;99.90;;;;;;483381;245;29238;-71
2022/07/23 07:18:24;;;;;;;8.27;7.50;;;19.60;99.90;;;;;;483419;245;28820;-70
2022/07/23 07:20:25;;;;;;;8.47;7.67;;;19.80;99.90;;;;;;483396;245;28887;-70
2022/07/23 07:22:26;;;;;;;8.20;7.40;;;19.80;99.90;;;;;;483419;245;28826;-71
2022/07/23 07:24:27;;;;;;;7.80;7.00;;;19.90;99.90;;;;;;483444;245;28886;-70
2022/07/23 07:26:30;;;;;;;8.20;7.40;;;19.90;99.90;;;;;;483336;245;28793;-70
2022/07/23 07:28:30;;;;;;;7.57;6.83;;;19.90;99.90;;;;;;483298;246;28822;-70
2022/07/23 07:30:31;;;;;;;10.03;7.20;;;19.90;99.90;;;;;;483416;245;28843;-69
2022/07/23 07:32:32;;;;;;;8.40;7.60;;;19.90;99.90;;;;;;483395;246;28791;-70
2022/07/23 07:34:34;;;;;;;7.23;6.63;;;20.10;99.90;;;;;;483342;245;29306;-71
2022/07/23 07:36:37;;;;;;;8.00;7.20;;;20.30;99.90;;;;;;483340;245;29316;-70
2022/07/23 07:38:36;;;;;;;8.37;7.47;;;20.40;99.90;;;;;;483319;245;29380;-70
2022/07/23 07:40:37;;;;;;;7.80;7.10;;;20.40;99.90;;;;;;483434;245;29347;-70
2022/07/23 07:42:39;;;;;;;9.53;8.20;;;20.50;99.90;;;;;;483384;245;28820;-70
2022/07/23 07:44:40;;;;;;;8.23;7.50;;;20.50;99.90;;;;;;483446;245;28830;-72
2022/07/23 07:46:41;;;;;;;8.53;7.70;;;20.40;99.90;;;;;;483332;245;28788;-70
2022/07/23 07:48:42;;;;;;;8.53;7.70;;;20.40;99.90;;;;;;483419;245;28807;-73
2022/07/23 07:50:44;;;;;;;11.33;7.70;;;20.40;99.90;;;;;;483420;245;28893;-69
2022/07/23 07:52:45;;;;;;;8.97;8.03;;;20.50;99.90;;;;;;483416;245;28845;-70
2022/07/23 07:54:46;;;;;;;9.70;8.80;;;20.50;99.90;;;;;;483416;245;29279;-74
2022/07/23 07:56:48;;;;;;;8.90;8.00;;;20.40;99.90;;;;;;483358;245;28888;-70
2022/07/23 07:58:49;;;;;;;8.50;7.60;;;20.50;99.90;;;;;;483416;245;29382;-71
2022/07/23 08:00:51;;;;;;;8.50;7.70;;;20.40;99.90;;;;;;483423;245;29243;-69
2022/07/23 08:02:51;;;;;;;8.23;7.43;;;20.50;99.90;;;;;;483391;246;29305;-70
2022/07/23 08:04:52;;;;;;;9.50;8.30;;;20.60;99.90;;;;;;483447;245;29460;-72
2022/07/23 08:06:54;;;;;;;8.60;7.80;;;20.40;99.90;;;;;;483389;245;28794;-70
2022/07/23 08:08:55;;;;;;;8.50;7.70;;;20.50;99.90;;;;;;483415;245;28915;-71
2022/07/23 08:10:56;;;;;;;8.97;8.10;;;20.40;99.90;;;;;;483433;245;28804;-70
2022/07/23 08:12:57;;;;;;;8.93;7.80;;;20.40;99.90;;;;;;483424;246;28832;-70
2022/07/23 08:14:59;;;;;;;8.93;7.87;;;20.50;99.90;;;;;;483414;245;28937;-70
2022/07/23 08:17:00;;;;;;;8.70;7.83;;;20.50;99.90;;;;;;483384;246;28851;-70
2022/07/23 08:19:01;;;;;;;8.97;8.17;;;20.50;99.90;;;;;;483422;245;28846;-70
2022/07/23 08:21:04;;;;;;;8.03;7.30;;;20.50;99.90;;;;;;483378;245;28802;-70
2022/07/23 08:23:04;;;;;;;8.23;7.40;;;20.60;99.90;;;;;;483324;246;28849;-70
2022/07/23 08:25:05;;;;;;;8.63;7.73;;;20.70;99.90;;;;;;483392;245;30140;-70
2022/07/23 08:27:06;;;;;;;9.00;8.10;;;20.80;99.90;;;;;;483353;245;29384;-70
2022/07/23 08:29:07;;;;;;;7.90;7.20;;;20.80;99.90;;;;;;483421;245;29302;-73
2022/07/23 08:31:10;;;;;;;8.40;7.40;;;20.90;99.90;;;;;;483407;245;28890;-69
2022/07/23 08:33:13;;;;;;;7.70;7.00;;;21.20;99.90;;;;;;483308;246;28820;-71
2022/07/23 08:35:14;;;;;;;9.30;8.40;;;21.20;99.90;;;;;;483286;245;29292;-70
2022/07/23 08:37:15;;;;;;;9.30;8.17;;;20.90;99.90;;;;;;483337;245;29546;-72
2022/07/23 08:39:17;;;;;;;8.60;7.80;;;21.10;99.90;;;;;;483424;245;29252;-70
2022/07/23 08:41:18;;;;;;;8.00;7.30;;;21.20;99.90;;;;;;483429;245;29368;-70
2022/07/23 08:43:19;;;;;;;8.60;7.80;;;21.10;99.90;;;;;;483415;246;28873;-70
2022/07/23 08:45:20;;;;;;;9.00;8.20;;;21.00;99.90;;;;;;483425;245;29300;-70
2022/07/23 08:47:22;;;;;;;8.77;7.97;;;21.00;99.90;;;;;;483307;245;28939;-74
2022/07/23 08:49:23;;;;;;;8.87;8.07;;;21.00;99.90;;;;;;483425;245;28883;-70
2022/07/23 08:51:24;;;;;;;9.00;8.20;;;21.00;99.90;;;;;;483407;245;28854;-71
2022/07/23 08:53:25;;;;;;;9.70;8.70;;;21.10;99.90;;;;;;483403;245;28808;-70
2022/07/23 08:55:27;;;;;;;8.40;7.70;;;21.10;99.90;;;;;;483391;245;28816;-71
2022/07/23 08:57:28;;;;;;;8.40;7.60;;;21.40;99.90;;;;;;483375;245;28850;-73
2022/07/23 08:59:29;;;;;;;9.43;8.50;;;21.40;99.90;;;;;;483419;245;29260;-70
2022/07/23 09:01:30;;;;;;;7.70;6.97;;;21.50;99.90;;;;;;483409;245;29782;-72
2022/07/23 09:03:32;;;;;;;8.43;7.63;;;21.60;99.90;;;;;;483413;245;29249;-70
2022/07/23 09:05:33;;;;;;;8.03;7.23;;;21.90;99.90;;;;;;483408;245;29297;-70
2022/07/23 09:07:34;;;;;;;8.27;7.40;;;21.90;99.90;;;;;;483379;246;28915;-73
2022/07/23 09:09:35;;;;;;;9.53;7.43;;;21.90;99.90;;;;;;483416;245;28800;-70
2022/07/23 09:11:37;;;;;;;8.00;7.20;;;22.00;99.90;;;;;;483420;245;28893;-71
2022/07/23 09:13:38;;;;;;;8.00;7.20;;;22.00;99.90;;;;;;483423;245;28872;-70
2022/07/23 09:15:39;;;;;;;8.77;7.87;;;21.90;99.90;;;;;;483396;245;28904;-71
2022/07/23 09:17:40;;;;;;;8.37;7.57;;;21.80;99.90;;;;;;483331;245;29287;-73
2022/07/23 09:19:42;;;;;;;8.10;7.33;;;21.80;99.90;;;;;;483424;245;28912;-70
2022/07/23 09:21:43;;;;;;;8.80;8.00;;;21.80;99.90;;;;;;483407;246;28824;-70
2022/07/23 09:23:44;;;;;;;8.30;7.50;;;21.80;99.90;;;;;;483390;245;28905;-70
2022/07/23 09:25:45;;;;;;;8.50;7.70;;;21.80;99.90;;;;;;483393;245;29296;-71
2022/07/23 09:27:47;;;;;;;7.40;6.70;;;21.90;99.90;;;;;;483283;245;29318;-73
2022/07/23 09:29:48;;;;;;;7.95;7.20;;;22.00;99.90;;;;;;479352;245;36471;-70
2022/07/23 09:31:49;;;;;;;7.93;7.13;;;22.20;99.90;;;;;;483428;245;27486;-71
2022/07/23 09:33:50;;;;;;;8.07;7.27;;;22.30;99.90;;;;;;483407;245;28812;-70
2022/07/23 09:35:52;;;;;;;8.37;7.53;;;22.20;99.90;;;;;;483303;245;28883;-71
2022/07/23 09:37:53;;;;;;;8.10;7.30;;;22.20;99.90;;;;;;483382;245;28810;-70
2022/07/23 09:39:54;;;;;;;7.57;6.87;;;22.30;99.90;;;;;;483434;245;28868;-70
2022/07/23 09:41:55;;;;;;;8.20;7.50;;;22.50;99.90;;;;;;483430;245;28818;-72
2022/07/23 09:43:57;;;;;;;7.63;6.93;;;22.80;99.90;;;;;;483405;245;28885;-71
2022/07/23 09:45:58;;;;;;;7.63;6.80;;;22.90;99.90;;;;;;483386;245;28816;-70
2022/07/23 09:47:59;;;;;;;7.83;7.07;;;23.00;99.90;;;;;;483340;246;30077;-70
2022/07/23 09:50:00;;;;;;;8.07;7.37;;;23.20;99.90;;;;;;483410;245;29390;-70
2022/07/23 09:52:02;;;;;;;8.13;7.33;;;23.10;99.90;;;;;;483426;245;29397;-73
2022/07/23 09:54:03;;;;;;;7.80;7.10;;;23.00;99.90;;;;;;483399;246;29405;-70
2022/07/23 09:56:04;;;;;;;7.47;6.77;;;22.90;99.90;;;;;;483356;245;28955;-71
2022/07/23 09:58:07;;;;;;;7.70;7.00;;;22.90;99.90;;;;;;483346;245;28858;-70
2022/07/23 10:00:08;;;;;;;9.60;7.90;;;22.90;99.90;;;;;;483321;246;28784;-69
2022/07/23 10:02:08;;;;;;;7.87;7.07;;;22.90;99.90;;;;;;483339;245;28820;-70
2022/07/23 10:04:09;;;;;;;7.60;6.90;;;23.20;99.90;;;;;;483400;245;28786;-70
2022/07/23 10:06:11;;;;;;;9.33;7.97;;;23.40;99.90;;;;;;483337;245;28829;-71
2022/07/23 10:08:12;;;;;;;7.67;6.97;;;23.50;99.90;;;;;;483382;245;28855;-69
2022/07/23 10:10:13;;;;;;;8.03;7.20;;;23.30;99.90;;;;;;483387;245;28808;-70
2022/07/23 10:14:34;;;;;;;8.47;7.77;;;23.10;99.90;;;;;;483369;246;28827;-70
2022/07/23 10:16:35;;;;;;;8.50;7.70;;;23.10;99.90;;;;;;483211;245;28792;-70
2022/07/23 10:18:37;;;;;;;8.60;7.90;;;23.10;99.90;;;;;;483392;245;28872;-71
2022/07/23 10:20:38;;;;;;;8.60;7.87;;;23.50;99.90;;;;;;483393;245;28794;-75
2022/07/23 10:22:39;;;;;;;7.33;6.63;;;23.70;99.90;;;;;;483368;246;28824;-71
2022/07/23 10:24:41;;;;;;;7.53;6.80;;;23.70;99.90;;;;;;483378;245;30030;-70
2022/07/23 10:26:42;;;;;;;7.70;7.00;;;23.90;99.90;;;;;;483240;245;29308;-70
2022/07/23 10:28:43;;;;;;;8.83;7.43;;;24.10;99.90;;;;;;483405;245;29311;-72
2022/07/23 10:30:44;;;;;;;7.90;7.20;;;24.20;99.90;;;;;;483443;246;28794;-70
2022/07/23 10:32:45;;;;;;;7.20;6.57;;;24.20;99.90;;;;;;483326;245;28819;-71